createdAt,value
2022-10-19T00:01:01.939Z,7.05
2022-10-19T00:03:29.485Z,7.40
2022-10-19T00:05:56.618Z,7.22
2022-10-19T00:08:23.904Z,7.22
2022-10-19T00:10:51.393Z,6.90
2022-10-19T00:13:18.537Z,6.88
2022-10-19T00:15:45.667Z,7.22
2022-10-19T00:18:12.948Z,6.30
2022-10-19T00:20:40.106Z,7.75
2022-10-19T00:23:07.228Z,7.35
2022-10-19T00:25:34.489Z,7.18
2022-10-19T00:28:01.716Z,8.07
2022-10-19T00:30:28.848Z,7.40
2022-10-19T00:32:56.083Z,7.55
2022-10-19T00:35:23.187Z,6.90
2022-10-19T00:37:50.306Z,7.05
2022-10-19T00:40:17.590Z,7.57
2022-10-19T00:42:44.739Z,6.53
2022-10-19T00:45:16.704Z,7.75
2022-10-19T00:47:44.560Z,6.70
2022-10-19T00:50:12.181Z,7.90
2022-10-19T00:52:39.364Z,7.32
2022-10-19T00:55:07.891Z,7.65
2022-10-19T00:57:35.526Z,7.22
2022-10-19T01:00:03.434Z,7.20
2022-10-19T01:02:30.943Z,6.88
2022-10-19T01:04:59.335Z,7.80
2022-10-19T01:07:27.810Z,7.47
2022-10-19T01:09:55.346Z,7.35
2022-10-19T01:12:28.143Z,8.07
2022-10-19T01:15:21.845Z,7.57
2022-10-19T01:18:11.994Z,7.90
2022-10-19T01:20:58.186Z,8.45
2022-10-19T01:23:39.440Z,7.40
2022-10-19T01:28:45.185Z,7.40
2022-10-19T01:31:35.630Z,7.95
2022-10-19T01:34:09.739Z,8.70
2022-10-19T01:36:45.011Z,8.30
2022-10-19T01:39:27.557Z,7.40
2022-10-19T01:42:03.729Z,7.88
2022-10-19T01:44:43.293Z,8.43
2022-10-19T01:47:15.538Z,7.75
2022-10-19T01:49:45.317Z,8.38
2022-10-19T01:52:14.785Z,8.55
2022-10-19T01:54:47.710Z,8.43
2022-10-19T01:57:16.612Z,8.07
2022-10-19T01:59:44.689Z,7.53
2022-10-19T02:02:13.837Z,7.85
2022-10-19T02:04:41.713Z,8.77
2022-10-19T02:07:09.345Z,8.68
2022-10-19T02:09:36.770Z,8.68
2022-10-19T02:12:07.073Z,8.35
2022-10-19T02:14:40.265Z,8.67
2022-10-19T02:17:12.484Z,8.95
2022-10-19T02:19:39.661Z,9.05
2022-10-19T02:22:07.506Z,8.68
2022-10-19T02:24:34.637Z,8.63
2022-10-19T02:27:04.676Z,8.82
2022-10-19T02:29:32.392Z,8.90
2022-10-19T02:31:59.710Z,9.35
2022-10-19T02:34:26.942Z,9.15
2022-10-19T02:36:54.626Z,9.63
2022-10-19T02:39:22.109Z,9.60
2022-10-19T02:41:52.336Z,8.50
2022-10-19T02:44:23.415Z,9.40
2022-10-19T02:47:05.173Z,9.32
2022-10-19T02:49:35.086Z,9.85
2022-10-19T02:52:03.876Z,9.30
2022-10-19T02:54:30.997Z,9.57
2022-10-19T02:56:58.238Z,9.40
2022-10-19T02:59:25.622Z,9.65
2022-10-19T03:01:52.741Z,9.20
2022-10-19T03:04:19.954Z,9.25
2022-10-19T03:06:47.143Z,9.77
2022-10-19T03:09:14.261Z,9.63
2022-10-19T03:11:41.567Z,9.15
2022-10-19T03:14:08.707Z,9.13
2022-10-19T03:16:35.891Z,10.13
2022-10-19T03:19:03.223Z,8.90
2022-10-19T03:21:30.549Z,9.23
2022-10-19T03:23:57.756Z,9.95
2022-10-19T03:26:25.029Z,9.57
2022-10-19T03:28:52.184Z,9.77
2022-10-19T03:31:19.861Z,9.95
2022-10-19T03:33:47.095Z,10.02
2022-10-19T03:36:15.824Z,10.38
2022-10-19T03:38:43.356Z,10.73
2022-10-19T03:41:10.842Z,9.82
2022-10-19T03:43:37.965Z,9.98
2022-10-19T03:46:05.317Z,10.35
2022-10-19T03:48:33.708Z,10.73
2022-10-19T03:51:01.953Z,10.27
2022-10-19T03:53:33.059Z,10.43
2022-10-19T03:56:07.884Z,10.57
2022-10-19T03:58:36.018Z,10.57
2022-10-19T04:01:03.413Z,11.18
2022-10-19T04:03:30.664Z,11.15
2022-10-19T04:06:04.981Z,11.05
2022-10-19T04:08:32.472Z,11.50
2022-10-19T04:11:01.063Z,12.95
2022-10-19T04:13:28.541Z,12.07
2022-10-19T04:15:55.875Z,10.98
2022-10-19T04:18:22.965Z,12.18
2022-10-19T04:20:50.130Z,11.57
2022-10-19T04:25:49.450Z,12.23
2022-10-19T04:28:19.443Z,11.32
2022-10-19T04:30:46.551Z,11.30
2022-10-19T04:33:13.740Z,12.10
2022-10-19T04:35:41.036Z,11.35
2022-10-19T04:38:08.191Z,11.55
2022-10-19T04:40:36.483Z,12.13
2022-10-19T04:43:04.203Z,12.45
2022-10-19T04:45:31.544Z,11.68
2022-10-19T04:47:58.677Z,12.43
2022-10-19T04:50:26.247Z,12.90
2022-10-19T04:52:53.367Z,12.40
2022-10-19T04:55:20.506Z,12.73
2022-10-19T04:57:47.692Z,12.68
2022-10-19T05:00:15.240Z,12.95
2022-10-19T05:02:45.900Z,12.63
2022-10-19T05:05:13.834Z,13.57
2022-10-19T05:07:41.240Z,13.70
2022-10-19T05:10:09.194Z,13.30
2022-10-19T05:12:36.981Z,12.70
2022-10-19T05:15:04.804Z,13.48
2022-10-19T05:17:32.822Z,14.48
2022-10-19T05:20:00.339Z,13.52
2022-10-19T05:22:27.540Z,14.15
2022-10-19T05:24:58.032Z,13.02
2022-10-19T05:27:25.534Z,14.32
2022-10-19T05:29:52.674Z,14.23
2022-10-19T05:32:19.799Z,14.65
2022-10-19T05:34:47.087Z,13.65
2022-10-19T05:37:14.207Z,13.55
2022-10-19T05:39:41.317Z,13.27
2022-10-19T05:42:09.077Z,13.15
2022-10-19T05:47:09.241Z,12.23
2022-10-19T05:49:36.374Z,11.13
2022-10-19T05:52:03.844Z,10.95
2022-10-19T05:54:31.024Z,10.95
2022-10-19T05:56:58.188Z,11.15
2022-10-19T05:59:25.359Z,11.45
2022-10-19T06:01:52.625Z,10.45
2022-10-19T06:04:19.792Z,9.98
2022-10-19T06:06:46.985Z,9.55
2022-10-19T06:09:14.440Z,9.02
2022-10-19T06:11:42.221Z,9.57
2022-10-19T06:14:12.175Z,10.05
2022-10-19T06:16:39.769Z,9.85
2022-10-19T06:19:06.937Z,8.85
2022-10-19T06:21:34.649Z,8.27
2022-10-19T06:24:03.638Z,7.68
2022-10-19T06:26:31.708Z,7.35
2022-10-19T06:29:00.487Z,7.68
2022-10-19T06:31:31.806Z,6.53
2022-10-19T06:36:27.823Z,5.72
2022-10-19T06:38:56.363Z,6.00
2022-10-19T06:41:24.258Z,5.80
2022-10-19T06:43:52.274Z,5.28
2022-10-19T06:46:23.528Z,3.70
2022-10-19T06:48:51.497Z,4.18
2022-10-19T06:51:18.809Z,4.22
2022-10-19T06:53:46.137Z,4.30
2022-10-19T06:56:13.310Z,3.58
2022-10-19T06:58:40.984Z,3.53
2022-10-19T07:01:08.747Z,4.50
2022-10-19T07:03:36.557Z,2.63
2022-10-19T07:06:05.449Z,2.72
2022-10-19T07:08:33.320Z,2.38
2022-10-19T07:11:01.934Z,2.50
2022-10-19T07:13:30.170Z,2.50
2022-10-19T07:16:03.538Z,2.85
2022-10-19T07:18:30.723Z,2.55
2022-10-19T07:20:58.722Z,2.28
2022-10-19T07:23:26.545Z,2.40
2022-10-19T07:25:54.369Z,2.40
2022-10-19T07:28:22.454Z,2.80
2022-10-19T07:30:49.729Z,2.88
2022-10-19T07:35:45.042Z,2.40
2022-10-19T07:38:12.873Z,2.70
2022-10-19T07:40:43.563Z,3.00
2022-10-19T07:43:13.720Z,2.85
2022-10-19T07:45:40.850Z,3.28
2022-10-19T07:48:08.028Z,2.92
2022-10-19T07:50:35.338Z,4.30
2022-10-19T07:53:05.188Z,3.30
2022-10-19T07:55:34.329Z,3.33
2022-10-19T07:58:02.180Z,3.63
2022-10-19T08:00:29.811Z,3.78
2022-10-19T08:03:31.124Z,3.08
2022-10-19T08:05:44.309Z,3.10
2022-10-19T08:08:11.430Z,2.67
2022-10-19T08:10:38.603Z,2.85
2022-10-19T08:13:05.785Z,2.95
2022-10-19T08:15:32.961Z,2.92
2022-10-19T08:18:01.049Z,2.92
2022-10-19T08:20:28.356Z,2.58
2022-10-19T08:22:58.126Z,2.88
2022-10-19T08:25:26.295Z,2.80
2022-10-19T08:27:53.620Z,2.90
2022-10-19T08:30:20.830Z,2.58
2022-10-19T08:32:48.093Z,3.17
2022-10-19T08:35:15.396Z,2.58
2022-10-19T08:37:46.013Z,2.45
2022-10-19T08:40:24.985Z,2.47
2022-10-19T08:42:52.118Z,2.75
2022-10-19T08:45:24.163Z,2.13
2022-10-19T08:47:54.355Z,2.40
2022-10-19T08:50:23.264Z,2.78
2022-10-19T08:53:02.383Z,2.38
2022-10-19T08:55:50.190Z,2.13
2022-10-19T08:58:40.798Z,2.20
2022-10-19T09:01:13.107Z,2.20
2022-10-19T09:03:56.184Z,2.00
2022-10-19T09:06:23.594Z,1.65
2022-10-19T09:08:52.398Z,1.85
2022-10-19T09:11:28.207Z,2.58
2022-10-19T09:14:13.826Z,2.15
2022-10-19T09:16:41.080Z,1.95
2022-10-19T09:19:18.966Z,1.83
2022-10-19T09:21:49.185Z,2.30
2022-10-19T09:24:29.994Z,1.77
2022-10-19T09:26:59.250Z,2.20
2022-10-19T09:29:29.244Z,1.88
2022-10-19T09:34:35.495Z,2.08
2022-10-19T09:37:03.003Z,2.38
2022-10-19T09:39:31.132Z,2.47
2022-10-19T09:41:59.569Z,2.50
2022-10-19T09:44:28.057Z,1.90
2022-10-19T09:47:13.654Z,2.15
2022-10-19T09:49:48.644Z,2.30
2022-10-19T09:52:34.070Z,2.42
2022-10-19T09:55:18.501Z,2.47
2022-10-19T09:57:46.625Z,3.05
2022-10-19T10:00:39.950Z,2.30
2022-10-19T10:03:07.725Z,3.05
2022-10-19T10:05:39.310Z,3.10
2022-10-19T10:08:13.813Z,2.97
2022-10-19T10:10:44.090Z,2.80
2022-10-19T10:13:18.299Z,3.00
2022-10-19T10:15:48.411Z,3.35
2022-10-19T10:18:16.793Z,3.25
2022-10-19T10:23:26.222Z,3.35
2022-10-19T10:25:56.145Z,3.17
2022-10-19T10:28:25.964Z,3.03
2022-10-19T10:31:01.181Z,2.70
2022-10-19T10:33:45.617Z,3.47
2022-10-19T10:36:13.301Z,3.42
2022-10-19T10:38:49.641Z,2.97
2022-10-19T10:41:17.940Z,2.70
2022-10-19T10:44:11.412Z,2.22
2022-10-19T10:46:43.388Z,2.03
2022-10-19T10:49:17.719Z,1.90
2022-10-19T10:51:49.226Z,2.05
2022-10-19T10:54:24.026Z,2.10
2022-10-19T10:57:04.392Z,2.10
2022-10-19T10:59:43.182Z,2.00
2022-10-19T11:02:18.929Z,2.30
2022-10-19T11:04:52.215Z,2.80
2022-10-19T11:07:21.111Z,2.33
2022-10-19T11:09:57.441Z,1.73
2022-10-19T11:12:35.175Z,1.65
2022-10-19T11:15:12.106Z,1.50
2022-10-19T11:17:40.906Z,1.60
2022-10-19T11:20:15.266Z,1.75
2022-10-19T11:22:52.274Z,1.98
2022-10-19T11:25:45.793Z,2.20
2022-10-19T11:28:35.505Z,2.03
2022-10-19T11:31:16.867Z,2.05
2022-10-19T11:33:46.987Z,1.83
2022-10-19T11:36:14.114Z,2.13
2022-10-19T11:38:49.609Z,2.00
2022-10-19T11:41:31.510Z,2.05
2022-10-19T11:44:17.653Z,1.83
2022-10-19T11:46:45.649Z,1.80
2022-10-19T11:49:15.864Z,1.80
2022-10-19T11:52:01.788Z,2.27
2022-10-19T11:54:40.861Z,2.00
2022-10-19T11:57:16.802Z,1.73
2022-10-19T12:00:15.448Z,2.40
2022-10-19T12:02:54.226Z,2.10
2022-10-19T12:05:27.902Z,2.92
2022-10-19T12:07:55.614Z,2.65
2022-10-19T12:10:33.171Z,1.88
2022-10-19T12:13:05.498Z,2.05
2022-10-19T12:15:38.897Z,1.88
2022-10-19T12:18:11.065Z,2.20
2022-10-19T12:20:40.686Z,2.40
2022-10-19T12:23:23.749Z,2.28
2022-10-19T12:25:51.579Z,1.90
2022-10-19T12:28:22.591Z,2.17
2022-10-19T12:30:50.345Z,2.20
2022-10-19T12:33:25.769Z,2.05
2022-10-19T12:35:56.623Z,2.10
2022-10-19T12:38:37.799Z,2.33
2022-10-19T12:41:06.858Z,1.90
2022-10-19T12:43:33.946Z,2.55
2022-10-19T12:46:01.087Z,2.78
2022-10-19T12:48:28.295Z,2.28
2022-10-19T12:50:57.141Z,2.10
2022-10-19T12:56:01.853Z,2.83
2022-10-19T12:58:34.258Z,2.42
2022-10-19T13:01:02.804Z,2.50
2022-10-19T13:03:31.896Z,2.35
2022-10-19T13:06:00.176Z,2.35
2022-10-19T13:08:32.653Z,1.80
2022-10-19T13:11:07.502Z,2.28
2022-10-19T13:13:53.782Z,2.35
2022-10-19T13:16:47.144Z,2.50
2022-10-19T13:19:14.308Z,1.80
2022-10-19T13:21:44.565Z,2.70
2022-10-19T13:24:28.606Z,2.67
2022-10-19T13:26:58.826Z,2.17
2022-10-19T13:29:46.310Z,2.42
2022-10-19T13:32:32.713Z,2.30
2022-10-19T13:35:19.072Z,2.40
2022-10-19T13:37:46.259Z,2.50
2022-10-19T13:40:24.543Z,2.40
2022-10-19T13:42:58.556Z,2.13
2022-10-19T13:45:25.905Z,2.10
2022-10-19T13:47:56.984Z,2.28
2022-10-19T13:50:38.726Z,2.50
2022-10-19T13:53:05.829Z,2.67
2022-10-19T13:55:32.935Z,2.65
2022-10-19T13:58:18.948Z,2.45
2022-10-19T14:00:52.325Z,2.45
2022-10-19T14:03:19.849Z,2.40
2022-10-19T14:06:05.740Z,2.42
2022-10-19T14:08:33.024Z,3.00
2022-10-19T14:11:07.142Z,2.80
2022-10-19T14:13:34.426Z,3.20
2022-10-19T14:16:02.998Z,2.95
2022-10-19T14:18:34.491Z,2.58
2022-10-19T14:21:03.200Z,2.42
2022-10-19T14:23:31.447Z,2.67
2022-10-19T14:26:03.476Z,2.80
2022-10-19T14:28:31.390Z,3.00
2022-10-19T14:31:03.341Z,2.90
2022-10-19T14:33:32.368Z,3.08
2022-10-19T14:35:59.550Z,3.05
2022-10-19T14:38:35.142Z,2.88
2022-10-19T14:41:02.868Z,2.53
2022-10-19T14:43:31.132Z,3.40
2022-10-19T14:46:07.309Z,2.42
2022-10-19T14:48:38.978Z,2.55
2022-10-19T14:51:11.103Z,2.70
2022-10-19T14:53:42.804Z,2.72
2022-10-19T14:56:20.722Z,2.25
2022-10-19T14:59:08.082Z,2.53
2022-10-19T15:01:36.148Z,2.70
2022-10-19T15:04:03.463Z,3.10
2022-10-19T15:06:36.088Z,2.70
2022-10-19T15:09:07.385Z,2.58
2022-10-19T15:11:46.668Z,3.10
2022-10-19T15:14:15.622Z,2.97
2022-10-19T15:16:45.810Z,3.33
2022-10-19T15:19:31.781Z,3.00
2022-10-19T15:22:08.097Z,3.20
2022-10-19T15:24:35.795Z,6.72
2022-10-19T15:27:18.824Z,16.65
2022-10-19T15:29:59.765Z,18.23
2022-10-19T15:32:31.866Z,10.20
2022-10-19T15:34:59.518Z,8.40
2022-10-19T15:39:58.980Z,6.28
2022-10-19T15:42:35.359Z,9.18
2022-10-19T15:45:03.120Z,5.90
2022-10-19T15:47:30.384Z,5.35
2022-10-19T15:50:00.415Z,5.38
2022-10-19T15:52:29.353Z,5.15
2022-10-19T15:54:58.040Z,3.63
2022-10-19T15:57:27.106Z,3.70
2022-10-19T15:59:55.673Z,3.42
2022-10-19T16:02:25.055Z,3.53
2022-10-19T16:04:53.810Z,4.32
2022-10-19T16:07:29.275Z,3.17
2022-10-19T16:09:56.607Z,2.60
2022-10-19T16:12:24.800Z,2.30
2022-10-19T16:14:51.911Z,2.47
2022-10-19T16:17:19.239Z,2.40
2022-10-19T16:19:46.629Z,2.55
2022-10-19T16:22:14.545Z,2.47
2022-10-19T16:24:41.961Z,2.38
2022-10-19T16:27:09.450Z,2.13
2022-10-19T16:29:36.617Z,2.50
2022-10-19T16:32:03.857Z,2.22
2022-10-19T16:34:30.983Z,2.30
2022-10-19T16:37:01.413Z,2.05
2022-10-19T16:39:31.358Z,2.65
2022-10-19T16:41:58.520Z,2.75
2022-10-19T16:44:25.680Z,2.08
2022-10-19T16:46:52.939Z,2.88
2022-10-19T16:49:20.094Z,2.55
2022-10-19T16:51:47.222Z,2.47
2022-10-19T16:54:15.702Z,2.83
2022-10-19T16:56:44.836Z,2.40
2022-10-19T16:59:13.818Z,2.63
2022-10-19T17:01:41.668Z,2.40
2022-10-19T17:04:08.905Z,2.70
2022-10-19T17:06:36.066Z,2.60
2022-10-19T17:11:50.724Z,2.67
2022-10-19T17:14:17.976Z,2.55
2022-10-19T17:16:45.269Z,2.95
2022-10-19T17:19:12.570Z,2.72
2022-10-19T17:21:39.902Z,2.50
2022-10-19T17:24:08.113Z,2.63
2022-10-19T17:26:36.653Z,2.85
2022-10-19T17:29:04.645Z,2.70
2022-10-19T17:31:32.241Z,2.88
2022-10-19T17:34:00.700Z,2.83
2022-10-19T17:36:29.312Z,2.60
2022-10-19T17:38:57.564Z,2.40
2022-10-19T17:41:25.479Z,2.38
2022-10-19T17:43:53.061Z,2.40
2022-10-19T17:46:40.507Z,2.58
2022-10-19T17:49:07.717Z,2.45
2022-10-19T17:51:35.807Z,2.70
2022-10-19T17:54:04.457Z,2.42
2022-10-19T17:56:32.288Z,2.00
2022-10-19T17:58:59.520Z,1.80
2022-10-19T18:01:27.101Z,1.63
2022-10-19T18:03:54.455Z,1.35
2022-10-19T18:06:23.573Z,1.23
2022-10-19T18:08:52.347Z,1.10
2022-10-19T18:11:20.900Z,1.08
2022-10-19T18:13:48.458Z,0.90
2022-10-19T18:16:17.128Z,0.80
2022-10-19T18:18:46.141Z,1.27
2022-10-19T18:21:14.689Z,1.15
2022-10-19T18:23:41.977Z,0.98
2022-10-19T18:26:14.394Z,1.00
2022-10-19T18:28:42.090Z,0.98
2022-10-19T18:31:16.534Z,0.93
2022-10-19T18:33:43.774Z,0.90
2022-10-19T18:36:11.497Z,1.13
2022-10-19T18:38:39.455Z,0.80
2022-10-19T18:41:08.298Z,0.80
2022-10-19T18:43:35.567Z,0.63
2022-10-19T18:46:02.895Z,0.73
2022-10-19T18:48:30.408Z,0.93
2022-10-19T18:50:58.265Z,0.90
2022-10-19T18:53:25.602Z,0.82
2022-10-19T18:56:03.150Z,1.00
2022-10-19T18:58:31.076Z,0.90
2022-10-19T19:01:04.188Z,0.98
2022-10-19T19:03:31.512Z,1.10
2022-10-19T19:06:02.248Z,1.15
2022-10-19T19:08:29.837Z,1.08
2022-10-19T19:10:57.453Z,0.85
2022-10-19T19:13:24.750Z,0.80
2022-10-19T19:15:59.090Z,0.80
2022-10-19T19:18:26.715Z,1.08
2022-10-19T19:20:54.244Z,1.05
2022-10-19T19:23:21.534Z,1.00
2022-10-19T19:25:48.665Z,0.88
2022-10-19T19:28:15.817Z,1.00
2022-10-19T19:30:43.863Z,0.93
2022-10-19T19:33:11.311Z,1.23
2022-10-19T19:35:45.559Z,1.05
2022-10-19T19:38:13.347Z,1.00
2022-10-19T19:40:41.546Z,1.30
2022-10-19T19:43:09.266Z,0.90
2022-10-19T19:45:36.834Z,1.00
2022-10-19T19:48:04.337Z,1.02
2022-10-19T19:50:32.842Z,1.00
2022-10-19T19:53:00.321Z,1.02
2022-10-19T19:55:27.942Z,1.00
2022-10-19T19:57:55.479Z,1.38
2022-10-19T20:00:23.407Z,0.90
2022-10-19T20:02:54.310Z,1.00
2022-10-19T20:05:21.902Z,0.95
2022-10-19T20:07:49.099Z,1.10
2022-10-19T20:10:16.334Z,1.10
2022-10-19T20:12:44.156Z,1.00
2022-10-19T20:15:12.018Z,1.05
2022-10-19T20:17:39.449Z,1.00
2022-10-19T20:20:07.943Z,0.85
2022-10-19T20:22:35.201Z,1.00
2022-10-19T20:25:02.657Z,1.08
2022-10-19T20:27:29.970Z,1.25
2022-10-19T20:29:58.565Z,1.50
2022-10-19T20:32:26.212Z,1.67
2022-10-19T20:34:53.726Z,1.60
2022-10-19T20:37:21.311Z,1.38
2022-10-19T20:39:48.714Z,2.00
2022-10-19T20:42:16.795Z,1.77
2022-10-19T20:44:44.553Z,1.45
2022-10-19T20:47:11.926Z,1.33
2022-10-19T20:49:40.862Z,1.63
2022-10-19T20:52:08.129Z,1.52
2022-10-19T20:54:35.897Z,1.63
2022-10-19T20:57:03.253Z,1.42
2022-10-19T20:59:31.509Z,1.63
2022-10-19T21:01:58.731Z,1.50
2022-10-19T21:04:26.305Z,1.77
2022-10-19T21:06:53.504Z,1.45
2022-10-19T21:09:21.759Z,1.20
2022-10-19T21:11:50.346Z,1.33
2022-10-19T21:14:22.348Z,1.23
2022-10-19T21:16:52.687Z,1.00
2022-10-19T21:19:21.824Z,0.90
2022-10-19T21:21:50.811Z,1.25
2022-10-19T21:24:19.469Z,1.05
2022-10-19T21:26:46.936Z,0.90
2022-10-19T21:29:15.140Z,1.00
2022-10-19T21:31:46.401Z,0.70
2022-10-19T21:34:17.662Z,0.93
2022-10-19T21:36:44.939Z,0.85
2022-10-19T21:39:12.065Z,0.80
2022-10-19T21:41:39.202Z,0.60
2022-10-19T21:44:06.431Z,0.80
2022-10-19T21:46:33.517Z,0.68
2022-10-19T21:49:00.698Z,0.60
2022-10-19T21:51:27.947Z,0.57
2022-10-19T21:53:55.051Z,0.52
2022-10-19T21:56:22.214Z,0.47
2022-10-19T21:58:50.132Z,0.60
2022-10-19T22:01:18.219Z,0.57
2022-10-19T22:03:45.379Z,0.57
2022-10-19T22:06:12.808Z,0.68
2022-10-19T22:08:40.437Z,0.63
2022-10-19T22:11:08.544Z,0.55
2022-10-19T22:13:36.593Z,0.50
2022-10-19T22:16:04.988Z,0.63
2022-10-19T22:18:32.312Z,0.50
2022-10-19T22:21:03.369Z,0.50
2022-10-19T22:23:30.519Z,0.60
2022-10-19T22:25:57.856Z,0.60
2022-10-19T22:28:25.052Z,0.50
2022-10-19T22:30:55.924Z,0.43
2022-10-19T22:33:23.753Z,0.60
2022-10-19T22:35:55.322Z,0.82
2022-10-19T22:38:22.426Z,0.55
2022-10-19T22:40:49.575Z,0.40
2022-10-19T22:43:16.805Z,0.75
2022-10-19T22:45:43.935Z,0.60
2022-10-19T22:48:11.048Z,0.38
2022-10-19T22:50:38.320Z,0.45
2022-10-19T22:53:05.434Z,0.70
2022-10-19T22:55:32.555Z,0.40
2022-10-19T22:57:59.842Z,0.40
2022-10-19T23:00:26.982Z,0.65
2022-10-19T23:02:54.102Z,0.40
2022-10-19T23:05:21.373Z,0.55
2022-10-19T23:07:48.577Z,0.50
2022-10-19T23:10:15.761Z,0.60
2022-10-19T23:12:42.976Z,0.60
2022-10-19T23:15:10.363Z,0.60
2022-10-19T23:17:37.790Z,0.70
2022-10-19T23:20:05.448Z,0.80
2022-10-19T23:22:32.591Z,0.70
2022-10-19T23:24:59.715Z,0.60
2022-10-19T23:27:26.965Z,0.50
2022-10-19T23:29:54.069Z,0.50
2022-10-19T23:32:21.228Z,0.50
2022-10-19T23:34:48.709Z,0.80
2022-10-19T23:37:15.904Z,0.68
2022-10-19T23:39:43.088Z,0.60
2022-10-19T23:42:10.291Z,0.70
2022-10-19T23:44:37.415Z,0.70
2022-10-19T23:47:04.667Z,0.60
2022-10-19T23:49:31.877Z,0.80
2022-10-19T23:51:59.022Z,0.70
2022-10-19T23:54:26.156Z,0.60
2022-10-19T23:56:53.337Z,0.73
2022-10-19T23:59:20.516Z,0.68
